x

Slate Island (45136) Wave Buoy

3:00am - Mon 24th Jul 2017 All times are CDT. -5 hours from GMT.

  • Sig Wave height 0.7ft
  • Peak Period 5s
  • Wind
    4mph, 4mph gusts
  • Sea Temp 49°f
  • Air Temp 52°f
  • Sea Pressure 1017.2mb
  • Slate Island
  • Slate Island

More Historic Weather Station data

Upgrade to MSW Pro to gain access to the past 30 days of data for over 8000 Wavebouys and Weather Stations around the globe.

Join Pro

Comparision Forecast

View Surf forecast
   
Mon 07/24 3:00am 0.7ft 5s 4 4 mph 1017.2mb 49f 52f
2:00am 0.7ft 4s 4 4 mph 1017.2mb 49f 52f
1:00am 0.7ft 4s 9 11 mph 1016.9mb 50f 53f
12:00am 0.7ft 4s 11 11 mph 1016.9mb 50f 52f
Sun 07/23 11:00pm 0.7ft 5s 9 9 mph 1016.5mb 50f 52f
10:00pm 0.7ft 5s 9 9 mph 1016.4mb 50f 51f
9:00pm 0.7ft 5s 9 11 mph 1016.2mb 50f 51f
8:00pm 0.7ft 5s 7 9 mph 1015.1mb 51f 55f
7:00pm 0.7ft 4s 9 9 mph 1015.1mb 51f 55f
6:00pm 0.7ft 5s 9 11 mph 1014.5mb 53f 55f
5:00pm 0.7ft 4s 9 9 mph 1014.3mb 54f 55f
4:00pm 0.7ft 5s 7 9 mph 1014.2mb 52f 57f
3:00pm 0.7ft 5s 4 4 mph 1014mb 51f 65f
2:00pm 0.7ft 4s 2 2 mph 1014mb 53f 62f
1:00pm 0.7ft 2s 4 7 mph 1013.9mb 50f 62f
12:00pm 0.7ft 3s 7 9 mph 1014.2mb 48f 56f
11:00am 1ft 3s 7 9 mph 1013.8mb 47f 55f
10:00am 1ft 3s 9 9 mph 1013.5mb 47f 53f
9:00am 1ft 3s 9 9 mph 1013.1mb 47f 52f
8:00am 1ft 3s 13 16 mph 1012.5mb 47f 54f
7:00am 1ft 3s 13 16 mph 1012.1mb 47f 53f
6:00am 0.7ft 2s 13 16 mph 1011.3mb 48f 53f
5:00am 0.7ft 3s 13 16 mph 1010.9mb 48f 53f
4:00am 0.7ft 3s 9 9 mph 1010.7mb 48f 53f
3:00am 0.7ft 3s 11 13 mph 1010.4mb 48f 53f
2:00am 0.7ft 3s 7 9 mph 1010.9mb 49f 53f
1:00am 0.7ft 3s 9 11 mph 1010.7mb 49f 53f
12:00am 0.7ft 3s 13 16 mph 1010.8mb 50f 54f
Sat 07/22 11:00pm 0.7ft 3s 2 4 mph 1011.5mb 50f 56f
10:00pm 0.7ft 3s 11 13 mph 1011.4mb 49f 53f
9:00pm 1ft 3s 9 11 mph 1011.4mb 49f 53f
8:00pm 1ft 3s 9 9 mph 1011.1mb 49f 52f
7:00pm 1ft 3s 9 11 mph 1011.3mb 49f 53f
6:00pm 1ft 3s 9 11 mph 1011.6mb 48f 53f
5:00pm 1.3ft 3s 9 9 mph 1011.6mb 48f 52f
4:00pm 1.3ft 3s 11 11 mph 1011.4mb 48f 52f
3:00pm 1.3ft 3s 11 13 mph 1011.8mb 48f 53f
2:00pm 1.3ft 3s 13 16 mph 1011.7mb 49f 53f
1:00pm 1.3ft 3s 18 20 mph 1012mb 50f 54f
12:00pm 1.3ft 3s 13 16 mph 1013.1mb 50f 52f
11:00am 1.3ft 3s 13 16 mph 1013mb 51f 53f
10:00am 1ft 3s 13 16 mph 1013.2mb 50f 53f
9:00am 1ft 3s 13 16 mph 1013.3mb 50f 54f
8:00am 1.3ft 3s 11 13 mph 1013mb 51f 54f
7:00am 1.3ft 3s 11 13 mph 1012.2mb 51f 55f
6:00am 1.3ft 3s 13 16 mph 1011.9mb 51f 55f
5:00am 0.3ft 2s 13 18 mph 1011.8mb 51f 56f
4:00am 0.3ft 4s 9 9 mph 1012.4mb 51f 55f
3:00am 0.3ft 3s 7 9 mph 1012.4mb 51f 55f
2:00am 0.3ft 3s 9 9 mph 1012mb 52f 54f
1:00am 0.3ft 3s 7 9 mph 1012.8mb 52f 54f
12:00am 0.3ft 3s 4 7 mph 1013.1mb 52f 53f
Fri 07/21 11:00pm 0.3ft 3s  -  2 mph 1013.7mb 52f 53f
10:00pm 0.3ft 4s 4 4 mph 1013.5mb 52f 53f
9:00pm 0.3ft 3s 4 4 mph 1013.1mb 53f 53f
8:00pm 0.3ft 4s 4 4 mph 1013.1mb 53f 53f
7:00pm 0.3ft 3s 4 4 mph 1012.9mb 53f 53f
6:00pm 0.3ft 3s 7 7 mph 1013.5mb 53f 53f
5:00pm 0.3ft 4s 7 7 mph 1013.6mb 54f 54f
4:00pm 0.3ft 3s 4 7 mph 1013.8mb 53f 53f
3:00pm 0.3ft 3s 4 4 mph 1014.4mb 53f 53f
2:00pm 0.3ft 4s 7 7 mph 1015.3mb 52f 53f
1:00pm 0.7ft 4s 7 9 mph 1015.1mb 53f 53f
12:00pm 0.7ft 4s 7 9 mph 1014.9mb 53f 53f
11:00am 0.7ft 4s 2 4 mph 1014.4mb 52f 52f
10:00am 0.7ft 4s 2 4 mph 1014.6mb 51f 51f
9:00am 0.7ft 4s 2 4 mph 1013.9mb 51f 52f
8:00am 0.7ft 4s 4 4 mph 1014.2mb 50f 52f
7:00am 0.7ft 4s 4 4 mph 1013.8mb 50f 51f
6:00am 0.7ft 4s 4 7 mph 1014mb 50f 50f
5:00am 1ft 4s 4 4 mph 1014mb 50f 49f
4:00am 0.7ft 4s 4 7 mph 1013.7mb 51f 49f
3:00am 0.7ft 4s 2 4 mph 1012.9mb 51f 50f
2:00am 1ft 4s  -  2 mph 1013mb 51f 51f
1:00am 1ft 4s 2 2 mph 1013.2mb 51f 52f
12:00am 1ft 4s 4 7 mph 1013.1mb 51f 51f
Thu 07/20 11:00pm 1ft 4s 4 4 mph 1013.2mb 50f 51f
10:00pm 1ft 4s 4 7 mph 1013.2mb 50f 55f
9:00pm 1.3ft 3s 4 7 mph 1012.9mb 49f 54f
8:00pm 1ft 3s 7 9 mph 1012.6mb 49f 54f
7:00pm 1ft 3s 7 11 mph 1012.3mb 50f 51f
6:00pm 1ft 3s 11 13 mph 1011.8mb 50f 52f
5:00pm 1ft 3s 11 13 mph 1011.6mb 50f 53f
4:00pm 1ft 3s 13 13 mph 1012.2mb 51f 52f
3:00pm 0.7ft 3s 7 9 mph 1012.5mb 52f 55f
2:00pm 0.7ft 3s 4 4 mph 1012.5mb 51f 51f
1:00pm 0.7ft 3s 4 7 mph 1012.7mb 50f 50f
12:00pm 0.7ft 3s 9 11 mph 1012.8mb 51f 49f
11:00am 1ft 3s 4 4 mph 1012.2mb 50f 50f
10:00am 1ft 3s 2 4 mph 1012.1mb 49f 49f